Wednesday, August 15, 2018, 4:44 AM EDT
Back to Local

KBML, Berlin Municipal Airport

Location: Milan, NH, United States Lat: 44.583
Local Time: 4:44 AM EDT ( 8:44 GMT) Lon: -71.183
Time Zone: US/Eastern Elev: 1158 ft

Show me the last for .
Show Decoded

2018-08-15 04:09 METAR KBML 150809Z AUTO 00000KT 1/4SM FG VV001 18/18 A2984 RMK AO2 T01830183 =
2018-08-15 03:52 METAR KBML 150752Z AUTO 00000KT 1/4SM FG VV002 18/18 A2984 RMK AO2 SLP100
                 T01780178 =
2018-08-15 03:03 METAR KBML 150703Z AUTO 00000KT 1/4SM FG VV002 17/17 A2984 RMK AO2 T01720172 =
2018-08-15 02:52 METAR KBML 150652Z AUTO 00000KT 1/4SM FG VV001 17/17 A2985 RMK AO2 SLP102
                 T01670167 =
2018-08-15 02:31 METAR KBML 150631Z AUTO 00000KT 1/4SM FG VV001 17/17 A2985 RMK AO2 T01670167 =
2018-08-15 02:17 METAR KBML 150617Z AUTO 00000KT 1/2SM FG VV001 17/17 A2985 RMK AO2 T01670167 =
2018-08-15 01:52 METAR KBML 150552Z AUTO 00000KT 1/4SM FG VV001 18/18 A2986 RMK AO2 SLP106
                 T01780178 10217 20172 53001 =
2018-08-15 01:50 METAR KBML 150550Z AUTO 00000KT 1/2SM FG VV001 18/18 A2986 RMK AO2 =
2018-08-15 01:42 METAR KBML 150542Z AUTO 00000KT 1/4SM FG VV001 18/18 A2986 RMK AO2 T01780178 =
2018-08-15 01:33 METAR KBML 150533Z AUTO 00000KT 3/4SM BR BKN001 OVC110 17/17 A2986 RMK AO2
                 T01720172 =
2018-08-15 01:31 METAR KBML 150531Z AUTO 00000KT 1 1/2SM BR BKN001 OVC110 17/17 A2986 RMK AO2
                 T01720172 =
2018-08-15 01:23 METAR KBML 150523Z AUTO 00000KT 3SM BR BKN001 BKN110 18/18 A2986 RMK AO2
                 T01780178 =
2018-08-15 01:20 METAR KBML 150520Z AUTO 00000KT 2SM BR BKN002 BKN110 18/18 A2986 RMK AO2
                 T01780178 =
2018-08-15 01:17 METAR KBML 150517Z AUTO 00000KT 1 1/4SM BR SCT002 BKN110 18/18 A2986 RMK AO2
                 T01780178 =
2018-08-15 01:08 METAR KBML 150508Z AUTO 00000KT 1 3/4SM BR FEW002 BKN110 17/17 A2985 RMK AO2 VIS
                 1/2V4 T01720172 =
2018-08-15 00:52 METAR KBML 150452Z AUTO 00000KT 9SM FEW002 SCT110 18/18 A2986 RMK AO2 SLP106
                 T01830183 402830172 =
2018-08-15 00:49 METAR KBML 150449Z AUTO 00000KT 9SM FEW002 SCT110 19/18 A2986 RMK AO2 =
2018-08-14 23:52 METAR KBML 150352Z AUTO 00000KT 9SM SCT095 18/18 A2986 RMK AO2 SLP107 T01830178
                 =
2018-08-14 22:52 METAR KBML 150252Z AUTO 00000KT 10SM OVC110 19/19 A2986 RMK AO2 SLP107 T01940189
                 50004 =
2018-08-14 21:52 METAR KBML 150152Z AUTO 00000KT 10SM OVC110 19/19 A2987 RMK AO2 SLP110 T01940189
                 =
2018-08-14 20:52 METAR KBML 150052Z AUTO 00000KT 10SM CLR 20/19 A2986 RMK AO2 SLP107 T02000194 =
2018-08-14 19:52 METAR KBML 142352Z AUTO 00000KT 10SM CLR 22/21 A2985 RMK AO2 SLP103 T02170206
                 10283 20217 55001 =
2018-08-14 18:52 METAR KBML 142252Z AUTO 00000KT 10SM FEW045 24/21 A2984 RMK AO2 SLP099 T02440211
                 =
2018-08-14 17:52 METAR KBML 142152Z AUTO 16006KT 10SM CLR 25/21 A2985 RMK AO2 SLP101 T02500206 =
2018-08-14 16:52 METAR KBML 142052Z AUTO 16006KT 10SM FEW033 SCT044 SCT070 26/20 A2985 RMK AO2
                 SLP103 T02610200 56015 =
2018-08-14 15:52 METAR KBML 141952Z AUTO 12007KT 10SM SCT031 SCT065 28/21 A2986 RMK AO2 SLP107
                 T02780206 =
2018-08-14 14:52 METAR KBML 141852Z AUTO VRB04KT 10SM FEW037 FEW060 27/20 A2988 RMK AO2 SLP112
                 T02670200 =
2018-08-14 13:52 METAR KBML 141752Z AUTO 18007KT 10SM FEW024 BKN031 BKN039 27/21 A2990 RMK AO2
                 SLP119 60006 T02670211 10267 20211 56013 =
2018-08-14 13:49 METAR KBML 141749Z AUTO 16006KT 10SM FEW024 BKN031 OVC039 26/21 A2990 RMK AO2 =
2018-08-14 13:23 METAR KBML 141723Z AUTO 18007KT 10SM SCT023 BKN028 OVC050 26/21 A2991 RMK AO2
                 T02560206 =
2018-08-14 13:12 METAR KBML 141712Z AUTO 18004KT 10SM FEW016 BKN031 OVC050 25/21 A2991 RMK AO2
                 T02500211 =
2018-08-14 12:52 METAR KBML 141652Z AUTO 15006KT 10SM BKN019 OVC024 24/21 A2992 RMK AO2 RAE18 CIG
                 012V023 SLP128 P0000 T02440211 =
2018-08-14 11:52 METAR KBML 141552Z AUTO 22003KT 9SM -RA SCT014 BKN024 OVC050 23/21 A2994 RMK AO2
                 RAE1458B28 SLP133 P0000 T02280211 =
2018-08-14 10:52 METAR KBML 141452Z AUTO 00000KT 9SM -RA FEW007 BKN022 OVC041 22/21 A2994 RMK AO2
                 SLP136 P0002 60006 T02220206 58005 =
2018-08-14 10:15 METAR KBML 141415Z AUTO 00000KT 6SM -RA BR FEW009 OVC020 22/21 A2995 RMK AO2
                 P0000 T02170211 =
2018-08-14 10:02 METAR KBML 141402Z AUTO 00000KT 6SM -RA BR OVC019 22/21 A2995 RMK AO2 P0000
                 T02170206 =
2018-08-14 09:52 METAR KBML 141352Z AUTO 00000KT 2SM RA BR OVC018 22/21 A2995 RMK AO2 RAB00
                 SLP138 P0004 T02170206 =
2018-08-14 09:00 METAR KBML 141300Z AUTO 00000KT 10SM -RA OVC016 22/20 A2996 RMK AO2 RAB00 P0000
                 T02170200 =
2018-08-14 08:52 METAR KBML 141252Z AUTO 00000KT 10SM OVC014 22/20 A2996 RMK AO2 SLP141 T02170200
                 =
2018-08-14 08:30 METAR KBML 141230Z AUTO 00000KT 10SM OVC014 22/20 A2996 RMK AO2 T02170200 =
2018-08-14 07:52 METAR KBML 141152Z AUTO 00000KT 10SM OVC019 21/19 A2996 RMK AO2 SLP141 60000
                 T02110194 10211 20189 55003 =
2018-08-14 06:52 METAR KBML 141052Z AUTO 00000KT 9SM OVC019 20/19 A2996 RMK AO2 SLP141 T02000194
                 =
2018-08-14 05:52 METAR KBML 140952Z AUTO 00000KT 10SM OVC018 20/19 A2996 RMK AO2 RAB24E36 SLP140
                 P0000 T02000194 =
2018-08-14 04:52 METAR KBML 140852Z AUTO 00000KT 10SM OVC019 20/19 A2997 RMK AO2 SLP143 T02000189
                 56008 =

Support USWX by starting your Amazon purchase here.